sensor_id;sensor_type;location;lat;lon;timestamp;temperature;humidity
48946;DHT22;34999;50.940;3.998;2023-08-07T00:02:11;12.60;99.90
48946;DHT22;34999;50.940;3.998;2023-08-07T00:04:39;12.60;99.90
48946;DHT22;34999;50.940;3.998;2023-08-07T00:07:09;12.60;99.90
48946;DHT22;34999;50.940;3.998;2023-08-07T00:09:37;12.50;99.90
48946;DHT22;34999;50.940;3.998;2023-08-07T00:12:05;12.50;99.90
48946;DHT22;34999;50.940;3.998;2023-08-07T00:14:34;12.50;99.90
48946;DHT22;34999;50.940;3.998;2023-08-07T00:17:02;12.50;99.90
48946;DHT22;34999;50.940;3.998;2023-08-07T00:19:31;12.50;99.90
48946;DHT22;34999;50.940;3.998;2023-08-07T00:22:00;12.50;99.90
48946;DHT22;34999;50.940;3.998;2023-08-07T00:24:29;12.60;99.90
48946;DHT22;34999;50.940;3.998;2023-08-07T00:26:57;12.60;99.90
48946;DHT22;34999;50.940;3.998;2023-08-07T00:29:26;12.60;99.80
48946;DHT22;34999;50.940;3.998;2023-08-07T00:31:54;12.60;97.50
48946;DHT22;34999;50.940;3.998;2023-08-07T00:34:22;12.60;98.40
48946;DHT22;34999;50.940;3.998;2023-08-07T00:36:51;12.60;98.30
48946;DHT22;34999;50.940;3.998;2023-08-07T00:39:19;12.50;97.50
48946;DHT22;34999;50.940;3.998;2023-08-07T00:41:49;12.50;97.10
48946;DHT22;34999;50.940;3.998;2023-08-07T00:44:18;12.50;95.70
48946;DHT22;34999;50.940;3.998;2023-08-07T00:46:46;12.50;94.50
48946;DHT22;34999;50.940;3.998;2023-08-07T00:49:16;12.50;93.90
48946;DHT22;34999;50.940;3.998;2023-08-07T00:51:45;12.50;94.60
48946;DHT22;34999;50.940;3.998;2023-08-07T00:54:15;12.50;96.90
48946;DHT22;34999;50.940;3.998;2023-08-07T00:56:46;12.40;99.20
48946;DHT22;34999;50.940;3.998;2023-08-07T00:59:16;12.40;99.90
48946;DHT22;34999;50.940;3.998;2023-08-07T01:01:44;12.30;99.90
48946;DHT22;34999;50.940;3.998;2023-08-07T01:04:13;12.30;99.90
48946;DHT22;34999;50.940;3.998;2023-08-07T01:06:41;12.20;99.90
48946;DHT22;34999;50.940;3.998;2023-08-07T01:09:09;12.20;99.90
48946;DHT22;34999;50.940;3.998;2023-08-07T01:11:45;12.20;99.90
48946;DHT22;34999;50.940;3.998;2023-08-07T01:14:22;12.10;99.90
48946;DHT22;34999;50.940;3.998;2023-08-07T01:16:59;12.10;99.90
48946;DHT22;34999;50.940;3.998;2023-08-07T01:19:29;12.10;99.90
48946;DHT22;34999;50.940;3.998;2023-08-07T01:22:06;12.10;99.90
48946;DHT22;34999;50.940;3.998;2023-08-07T01:24:36;12.10;99.90
48946;DHT22;34999;50.940;3.998;2023-08-07T01:27:14;12.10;99.80
48946;DHT22;34999;50.940;3.998;2023-08-07T01:29:47;12.10;98.60
48946;DHT22;34999;50.940;3.998;2023-08-07T01:32:22;12.10;98.90
48946;DHT22;34999;50.940;3.998;2023-08-07T01:34:54;12.10;98.40
48946;DHT22;34999;50.940;3.998;2023-08-07T01:37:26;12.10;97.00
48946;DHT22;34999;50.940;3.998;2023-08-07T01:39:57;12.10;97.50
48946;DHT22;34999;50.940;3.998;2023-08-07T01:42:27;12.10;97.30
48946;DHT22;34999;50.940;3.998;2023-08-07T01:44:56;12.10;95.80
48946;DHT22;34999;50.940;3.998;2023-08-07T01:47:24;12.00;95.40
48946;DHT22;34999;50.940;3.998;2023-08-07T01:49:52;12.00;94.80
48946;DHT22;34999;50.940;3.998;2023-08-07T01:52:21;12.00;95.10
48946;DHT22;34999;50.940;3.998;2023-08-07T01:54:50;12.00;95.10
48946;DHT22;34999;50.940;3.998;2023-08-07T01:57:19;12.00;96.10
48946;DHT22;34999;50.940;3.998;2023-08-07T01:59:47;12.00;96.10
48946;DHT22;34999;50.940;3.998;2023-08-07T02:02:15;12.00;98.30
48946;DHT22;34999;50.940;3.998;2023-08-07T02:04:44;11.90;99.80
48946;DHT22;34999;50.940;3.998;2023-08-07T02:07:12;11.90;99.90
48946;DHT22;34999;50.940;3.998;2023-08-07T02:09:40;11.90;99.90
48946;DHT22;34999;50.940;3.998;2023-08-07T02:12:10;11.90;99.90
48946;DHT22;34999;50.940;3.998;2023-08-07T02:14:38;11.80;99.90
48946;DHT22;34999;50.940;3.998;2023-08-07T02:17:06;11.80;99.90
48946;DHT22;34999;50.940;3.998;2023-08-07T02:19:35;11.80;99.90
48946;DHT22;34999;50.940;3.998;2023-08-07T02:22:03;11.80;99.90
48946;DHT22;34999;50.940;3.998;2023-08-07T02:24:32;11.80;99.90
48946;DHT22;34999;50.940;3.998;2023-08-07T02:27:00;11.70;99.90
48946;DHT22;34999;50.940;3.998;2023-08-07T02:29:29;11.70;99.90
48946;DHT22;34999;50.940;3.998;2023-08-07T02:32:01;11.70;99.90
48946;DHT22;34999;50.940;3.998;2023-08-07T02:34:30;11.70;99.90
48946;DHT22;34999;50.940;3.998;2023-08-07T02:36:59;11.70;99.90
48946;DHT22;34999;50.940;3.998;2023-08-07T02:39:27;11.70;99.90
48946;DHT22;34999;50.940;3.998;2023-08-07T02:41:56;11.70;99.90
48946;DHT22;34999;50.940;3.998;2023-08-07T02:44:24;11.70;99.90
48946;DHT22;34999;50.940;3.998;2023-08-07T02:46:54;11.70;99.90
48946;DHT22;34999;50.940;3.998;2023-08-07T02:49:24;11.80;99.90
48946;DHT22;34999;50.940;3.998;2023-08-07T02:51:53;11.80;99.90
48946;DHT22;34999;50.940;3.998;2023-08-07T02:54:21;11.90;99.90
48946;DHT22;34999;50.940;3.998;2023-08-07T02:56:49;11.90;99.90
48946;DHT22;34999;50.940;3.998;2023-08-07T02:59:17;11.90;99.90
48946;DHT22;34999;50.940;3.998;2023-08-07T03:01:46;11.90;99.90
48946;DHT22;34999;50.940;3.998;2023-08-07T03:04:15;11.90;99.90
48946;DHT22;34999;50.940;3.998;2023-08-07T03:06:44;11.90;99.90
48946;DHT22;34999;50.940;3.998;2023-08-07T03:09:12;12.00;99.90
48946;DHT22;34999;50.940;3.998;2023-08-07T03:11:40;11.90;99.90
48946;DHT22;34999;50.940;3.998;2023-08-07T03:14:09;11.90;99.90
48946;DHT22;34999;50.940;3.998;2023-08-07T03:16:37;11.90;99.90
48946;DHT22;34999;50.940;3.998;2023-08-07T03:19:05;11.90;99.90
48946;DHT22;34999;50.940;3.998;2023-08-07T03:21:35;11.80;99.90
48946;DHT22;34999;50.940;3.998;2023-08-07T03:24:03;11.80;99.90
48946;DHT22;34999;50.940;3.998;2023-08-07T03:26:32;11.80;99.90
48946;DHT22;34999;50.940;3.998;2023-08-07T03:29:00;11.70;99.90
48946;DHT22;34999;50.940;3.998;2023-08-07T03:31:29;11.70;99.90
48946;DHT22;34999;50.940;3.998;2023-08-07T03:33:58;11.60;99.90
48946;DHT22;34999;50.940;3.998;2023-08-07T03:36:26;11.60;99.90
48946;DHT22;34999;50.940;3.998;2023-08-07T03:38:56;11.60;99.90
48946;DHT22;34999;50.940;3.998;2023-08-07T03:41:24;11.60;99.90
48946;DHT22;34999;50.940;3.998;2023-08-07T03:43:53;11.60;99.90
48946;DHT22;34999;50.940;3.998;2023-08-07T03:46:22;11.60;99.90
48946;DHT22;34999;50.940;3.998;2023-08-07T03:48:50;11.50;99.90
48946;DHT22;34999;50.940;3.998;2023-08-07T03:51:18;11.50;99.90
48946;DHT22;34999;50.940;3.998;2023-08-07T03:53:47;11.50;99.90
48946;DHT22;34999;50.940;3.998;2023-08-07T03:56:16;11.50;99.90
48946;DHT22;34999;50.940;3.998;2023-08-07T03:58:45;11.50;99.90
48946;DHT22;34999;50.940;3.998;2023-08-07T04:01:13;11.50;99.90
48946;DHT22;34999;50.940;3.998;2023-08-07T04:03:42;11.50;99.90
48946;DHT22;34999;50.940;3.998;2023-08-07T04:06:10;11.50;99.90
48946;DHT22;34999;50.940;3.998;2023-08-07T04:08:44;11.50;99.90
48946;DHT22;34999;50.940;3.998;2023-08-07T04:11:13;11.50;99.90
48946;DHT22;34999;50.940;3.998;2023-08-07T04:13:42;11.50;99.90
48946;DHT22;34999;50.940;3.998;2023-08-07T04:16:11;11.50;99.90
48946;DHT22;34999;50.940;3.998;2023-08-07T04:18:39;11.50;99.90
48946;DHT22;34999;50.940;3.998;2023-08-07T04:21:07;11.50;99.90
48946;DHT22;34999;50.940;3.998;2023-08-07T04:23:36;11.40;99.90
48946;DHT22;34999;50.940;3.998;2023-08-07T04:26:06;11.50;99.90
48946;DHT22;34999;50.940;3.998;2023-08-07T04:28:35;11.40;99.90
48946;DHT22;34999;50.940;3.998;2023-08-07T04:31:04;11.50;99.90
48946;DHT22;34999;50.940;3.998;2023-08-07T04:33:33;11.50;99.90
48946;DHT22;34999;50.940;3.998;2023-08-07T04:36:03;11.50;99.90
48946;DHT22;34999;50.940;3.998;2023-08-07T04:38:32;11.50;99.90
48946;DHT22;34999;50.940;3.998;2023-08-07T04:41:00;11.50;99.90
48946;DHT22;34999;50.940;3.998;2023-08-07T04:43:30;11.60;99.90
48946;DHT22;34999;50.940;3.998;2023-08-07T04:46:00;11.60;99.90
48946;DHT22;34999;50.940;3.998;2023-08-07T04:48:29;11.60;99.90
48946;DHT22;34999;50.940;3.998;2023-08-07T04:50:58;11.60;99.90
48946;DHT22;34999;50.940;3.998;2023-08-07T04:53:26;11.60;99.90
48946;DHT22;34999;50.940;3.998;2023-08-07T04:55:54;11.60;99.90
48946;DHT22;34999;50.940;3.998;2023-08-07T04:58:23;11.60;99.90
48946;DHT22;34999;50.940;3.998;2023-08-07T05:00:55;11.70;99.90
48946;DHT22;34999;50.940;3.998;2023-08-07T05:03:24;11.70;99.90
48946;DHT22;34999;50.940;3.998;2023-08-07T05:05:59;11.70;99.90
48946;DHT22;34999;50.940;3.998;2023-08-07T05:08:28;11.80;99.90
48946;DHT22;34999;50.940;3.998;2023-08-07T05:10:56;11.90;99.90
48946;DHT22;34999;50.940;3.998;2023-08-07T05:13:24;11.90;99.90
48946;DHT22;34999;50.940;3.998;2023-08-07T05:15:53;12.00;99.90
48946;DHT22;34999;50.940;3.998;2023-08-07T05:18:21;12.10;99.90
48946;DHT22;34999;50.940;3.998;2023-08-07T05:20:49;12.10;99.90
48946;DHT22;34999;50.940;3.998;2023-08-07T05:23:19;12.20;99.90
48946;DHT22;34999;50.940;3.998;2023-08-07T05:25:47;12.40;99.90
48946;DHT22;34999;50.940;3.998;2023-08-07T05:28:15;12.50;99.90
48946;DHT22;34999;50.940;3.998;2023-08-07T05:30:44;12.60;99.90
48946;DHT22;34999;50.940;3.998;2023-08-07T05:33:12;12.70;99.90
48946;DHT22;34999;50.940;3.998;2023-08-07T05:35:42;12.90;99.90
48946;DHT22;34999;50.940;3.998;2023-08-07T05:38:11;13.10;99.90
48946;DHT22;34999;50.940;3.998;2023-08-07T05:40:40;13.20;99.90
48946;DHT22;34999;50.940;3.998;2023-08-07T05:43:08;13.40;99.90
48946;DHT22;34999;50.940;3.998;2023-08-07T05:45:38;13.50;98.60
48946;DHT22;34999;50.940;3.998;2023-08-07T05:48:06;13.70;96.00
48946;DHT22;34999;50.940;3.998;2023-08-07T05:50:36;13.80;92.30
48946;DHT22;34999;50.940;3.998;2023-08-07T05:53:04;13.90;91.60
48946;DHT22;34999;50.940;3.998;2023-08-07T05:55:33;14.00;87.30
48946;DHT22;34999;50.940;3.998;2023-08-07T05:58:02;14.10;83.30
48946;DHT22;34999;50.940;3.998;2023-08-07T06:00:31;14.20;74.90
48946;DHT22;34999;50.940;3.998;2023-08-07T06:02:59;14.40;69.20
48946;DHT22;34999;50.940;3.998;2023-08-07T06:05:28;14.50;68.90
48946;DHT22;34999;50.940;3.998;2023-08-07T06:07:57;14.60;62.10
48946;DHT22;34999;50.940;3.998;2023-08-07T06:10:25;14.70;68.00
48946;DHT22;34999;50.940;3.998;2023-08-07T06:12:53;14.80;68.30
48946;DHT22;34999;50.940;3.998;2023-08-07T06:15:23;14.90;53.40
48946;DHT22;34999;50.940;3.998;2023-08-07T06:17:51;15.00;51.60
48946;DHT22;34999;50.940;3.998;2023-08-07T06:20:20;15.10;44.90
48946;DHT22;34999;50.940;3.998;2023-08-07T06:22:48;15.20;42.00
48946;DHT22;34999;50.940;3.998;2023-08-07T06:25:16;15.30;33.60
48946;DHT22;34999;50.940;3.998;2023-08-07T06:27:46;15.50;30.00
48946;DHT22;34999;50.940;3.998;2023-08-07T06:30:14;15.60;21.10
48946;DHT22;34999;50.940;3.998;2023-08-07T06:32:44;15.60;10.90
48946;DHT22;34999;50.940;3.998;2023-08-07T06:35:12;15.80;1.00
48946;DHT22;34999;50.940;3.998;2023-08-07T06:37:40;15.80;1.00
48946;DHT22;34999;50.940;3.998;2023-08-07T06:40:09;15.80;1.00
48946;DHT22;34999;50.940;3.998;2023-08-07T06:42:37;15.90;1.00
48946;DHT22;34999;50.940;3.998;2023-08-07T06:45:07;16.00;1.00
48946;DHT22;34999;50.940;3.998;2023-08-07T06:47:35;16.10;1.00
48946;DHT22;34999;50.940;3.998;2023-08-07T06:50:06;16.30;1.00
48946;DHT22;34999;50.940;3.998;2023-08-07T06:52:35;16.50;1.00
48946;DHT22;34999;50.940;3.998;2023-08-07T06:55:04;16.70;1.00
48946;DHT22;34999;50.940;3.998;2023-08-07T06:57:32;16.80;1.00
48946;DHT22;34999;50.940;3.998;2023-08-07T07:00:01;16.90;1.00
48946;DHT22;34999;50.940;3.998;2023-08-07T07:02:29;17.00;1.00
48946;DHT22;34999;50.940;3.998;2023-08-07T07:04:57;17.10;1.00
48946;DHT22;34999;50.940;3.998;2023-08-07T07:07:27;17.30;1.00
48946;DHT22;34999;50.940;3.998;2023-08-07T07:09:55;17.40;1.00
48946;DHT22;34999;50.940;3.998;2023-08-07T07:12:24;17.50;1.00
48946;DHT22;34999;50.940;3.998;2023-08-07T07:14:53;17.60;1.00
48946;DHT22;34999;50.940;3.998;2023-08-07T07:17:21;17.70;1.00
48946;DHT22;34999;50.940;3.998;2023-08-07T07:19:49;17.80;1.00
48946;DHT22;34999;50.940;3.998;2023-08-07T07:22:18;18.00;1.00
48946;DHT22;34999;50.940;3.998;2023-08-07T07:24:47;18.10;1.00
48946;DHT22;34999;50.940;3.998;2023-08-07T07:27:16;18.20;1.00
48946;DHT22;34999;50.940;3.998;2023-08-07T07:29:46;18.40;1.00
48946;DHT22;34999;50.940;3.998;2023-08-07T07:32:14;18.40;1.00
48946;DHT22;34999;50.940;3.998;2023-08-07T07:34:43;18.40;1.00
48946;DHT22;34999;50.940;3.998;2023-08-07T07:37:11;18.40;1.00
48946;DHT22;34999;50.940;3.998;2023-08-07T07:39:41;18.60;1.00
48946;DHT22;34999;50.940;3.998;2023-08-07T07:42:10;18.90;1.00
48946;DHT22;34999;50.940;3.998;2023-08-07T07:44:39;19.10;1.00
48946;DHT22;34999;50.940;3.998;2023-08-07T07:47:08;19.20;99.90
48946;DHT22;34999;50.940;3.998;2023-08-07T07:49:45;19.30;99.90
48946;DHT22;34999;50.940;3.998;2023-08-07T07:52:13;19.50;99.90
48946;DHT22;34999;50.940;3.998;2023-08-07T07:54:42;19.60;99.90
48946;DHT22;34999;50.940;3.998;2023-08-07T07:57:11;19.60;99.90
48946;DHT22;34999;50.940;3.998;2023-08-07T07:59:39;19.70;99.90
48946;DHT22;34999;50.940;3.998;2023-08-07T08:02:08;19.80;99.90
48946;DHT22;34999;50.940;3.998;2023-08-07T08:04:36;20.00;99.90
48946;DHT22;34999;50.940;3.998;2023-08-07T08:07:05;20.20;99.90
48946;DHT22;34999;50.940;3.998;2023-08-07T08:09:34;20.40;99.90
48946;DHT22;34999;50.940;3.998;2023-08-07T08:12:02;20.50;99.90
48946;DHT22;34999;50.940;3.998;2023-08-07T08:14:32;20.50;99.90
48946;DHT22;34999;50.940;3.998;2023-08-07T08:17:20;20.50;99.90
48946;DHT22;34999;50.940;3.998;2023-08-07T08:19:48;20.70;99.90
48946;DHT22;34999;50.940;3.998;2023-08-07T08:22:18;20.80;99.90
48946;DHT22;34999;50.940;3.998;2023-08-07T08:24:46;20.80;99.90
48946;DHT22;34999;50.940;3.998;2023-08-07T08:27:17;20.80;99.90
48946;DHT22;34999;50.940;3.998;2023-08-07T08:29:47;20.90;99.90
48946;DHT22;34999;50.940;3.998;2023-08-07T08:32:15;21.30;99.90
48946;DHT22;34999;50.940;3.998;2023-08-07T08:34:43;21.30;99.90
48946;DHT22;34999;50.940;3.998;2023-08-07T08:37:12;21.60;99.90
48946;DHT22;34999;50.940;3.998;2023-08-07T08:39:41;21.70;99.90
48946;DHT22;34999;50.940;3.998;2023-08-07T08:42:11;21.80;99.90
48946;DHT22;34999;50.940;3.998;2023-08-07T08:44:40;21.70;99.90
48946;DHT22;34999;50.940;3.998;2023-08-07T08:47:13;21.40;99.90
48946;DHT22;34999;50.940;3.998;2023-08-07T08:49:46;21.20;99.90
48946;DHT22;34999;50.940;3.998;2023-08-07T08:52:15;21.40;99.90
48946;DHT22;34999;50.940;3.998;2023-08-07T08:54:44;21.80;99.90
48946;DHT22;34999;50.940;3.998;2023-08-07T08:57:13;22.20;99.90
48946;DHT22;34999;50.940;3.998;2023-08-07T08:59:41;22.60;99.90
48946;DHT22;34999;50.940;3.998;2023-08-07T09:02:10;22.60;99.90
48946;DHT22;34999;50.940;3.998;2023-08-07T09:04:39;22.90;99.90
48946;DHT22;34999;50.940;3.998;2023-08-07T09:07:09;22.80;99.90
48946;DHT22;34999;50.940;3.998;2023-08-07T09:09:39;22.30;99.90
48946;DHT22;34999;50.940;3.998;2023-08-07T09:12:13;21.50;99.90
48946;DHT22;34999;50.940;3.998;2023-08-07T09:14:45;20.80;99.90
48946;DHT22;34999;50.940;3.998;2023-08-07T09:17:16;20.30;99.90
48946;DHT22;34999;50.940;3.998;2023-08-07T09:19:47;20.00;99.90
48946;DHT22;34999;50.940;3.998;2023-08-07T09:22:15;20.60;99.90
48946;DHT22;34999;50.940;3.998;2023-08-07T09:24:44;21.40;99.90
48946;DHT22;34999;50.940;3.998;2023-08-07T09:27:13;21.60;99.90
48946;DHT22;34999;50.940;3.998;2023-08-07T09:29:44;21.60;99.90
48946;DHT22;34999;50.940;3.998;2023-08-07T09:32:14;22.40;99.90
48946;DHT22;34999;50.940;3.998;2023-08-07T09:34:43;23.20;99.90
48946;DHT22;34999;50.940;3.998;2023-08-07T09:37:12;24.10;99.90
48946;DHT22;34999;50.940;3.998;2023-08-07T09:39:41;24.70;99.90
48946;DHT22;34999;50.940;3.998;2023-08-07T09:42:13;24.60;99.90
48946;DHT22;34999;50.940;3.998;2023-08-07T09:44:43;23.90;99.90
48946;DHT22;34999;50.940;3.998;2023-08-07T09:47:14;23.90;99.90
48946;DHT22;34999;50.940;3.998;2023-08-07T09:49:44;24.20;99.90
48946;DHT22;34999;50.940;3.998;2023-08-07T09:52:14;25.00;99.90
48946;DHT22;34999;50.940;3.998;2023-08-07T09:54:43;25.70;99.90
48946;DHT22;34999;50.940;3.998;2023-08-07T09:57:11;25.60;99.90
48946;DHT22;34999;50.940;3.998;2023-08-07T09:59:41;25.00;99.90
48946;DHT22;34999;50.940;3.998;2023-08-07T10:02:10;24.30;99.90
48946;DHT22;34999;50.940;3.998;2023-08-07T10:04:40;24.10;99.90
48946;DHT22;34999;50.940;3.998;2023-08-07T10:07:09;24.60;99.90
48946;DHT22;34999;50.940;3.998;2023-08-07T10:09:41;25.00;99.90
48946;DHT22;34999;50.940;3.998;2023-08-07T10:12:11;24.80;99.90
48946;DHT22;34999;50.940;3.998;2023-08-07T10:14:40;23.70;99.90
48946;DHT22;34999;50.940;3.998;2023-08-07T10:17:10;22.80;99.90
48946;DHT22;34999;50.940;3.998;2023-08-07T10:19:38;22.40;99.90
48946;DHT22;34999;50.940;3.998;2023-08-07T10:22:07;21.90;99.90
48946;DHT22;34999;50.940;3.998;2023-08-07T10:24:42;21.70;99.90
48946;DHT22;34999;50.940;3.998;2023-08-07T10:27:11;21.80;99.90
48946;DHT22;34999;50.940;3.998;2023-08-07T10:29:40;22.90;99.90
48946;DHT22;34999;50.940;3.998;2023-08-07T10:32:10;24.20;99.90
48946;DHT22;34999;50.940;3.998;2023-08-07T10:34:39;25.20;99.90
48946;DHT22;34999;50.940;3.998;2023-08-07T10:37:07;26.50;99.90
48946;DHT22;34999;50.940;3.998;2023-08-07T10:39:35;26.90;99.90
48946;DHT22;34999;50.940;3.998;2023-08-07T10:42:06;26.30;99.90
48946;DHT22;34999;50.940;3.998;2023-08-07T10:44:48;25.30;99.90
48946;DHT22;34999;50.940;3.998;2023-08-07T10:47:32;24.00;99.90
48946;DHT22;34999;50.940;3.998;2023-08-07T10:50:02;23.50;99.90
48946;DHT22;34999;50.940;3.998;2023-08-07T10:52:31;24.00;99.90
48946;DHT22;34999;50.940;3.998;2023-08-07T10:54:59;25.00;99.90
48946;DHT22;34999;50.940;3.998;2023-08-07T10:57:32;25.40;99.90
48946;DHT22;34999;50.940;3.998;2023-08-07T11:00:02;25.80;99.90
48946;DHT22;34999;50.940;3.998;2023-08-07T11:02:37;26.50;99.90
48946;DHT22;34999;50.940;3.998;2023-08-07T11:05:12;26.70;99.90
48946;DHT22;34999;50.940;3.998;2023-08-07T11:07:43;26.50;99.90
48946;DHT22;34999;50.940;3.998;2023-08-07T11:10:15;26.20;99.90
48946;DHT22;34999;50.940;3.998;2023-08-07T11:12:45;26.00;99.90
48946;DHT22;34999;50.940;3.998;2023-08-07T11:15:15;26.00;99.90
48946;DHT22;34999;50.940;3.998;2023-08-07T11:17:44;25.50;99.90
48946;DHT22;34999;50.940;3.998;2023-08-07T11:20:14;25.00;99.90
48946;DHT22;34999;50.940;3.998;2023-08-07T11:22:43;24.40;99.90
48946;DHT22;34999;50.940;3.998;2023-08-07T11:25:12;24.10;99.90
48946;DHT22;34999;50.940;3.998;2023-08-07T11:27:45;24.10;99.90
48946;DHT22;34999;50.940;3.998;2023-08-07T11:30:20;23.80;99.90
48946;DHT22;34999;50.940;3.998;2023-08-07T11:32:50;23.20;99.90
48946;DHT22;34999;50.940;3.998;2023-08-07T11:35:19;22.90;99.90
48946;DHT22;34999;50.940;3.998;2023-08-07T11:37:57;22.90;99.90
48946;DHT22;34999;50.940;3.998;2023-08-07T11:40:28;23.60;99.90
48946;DHT22;34999;50.940;3.998;2023-08-07T11:42:59;24.10;99.90
48946;DHT22;34999;50.940;3.998;2023-08-07T11:45:29;23.60;99.90
48946;DHT22;34999;50.940;3.998;2023-08-07T11:48:04;23.30;99.90
48946;DHT22;34999;50.940;3.998;2023-08-07T11:50:34;23.90;99.90
48946;DHT22;34999;50.940;3.998;2023-08-07T11:53:05;23.80;99.90
48946;DHT22;34999;50.940;3.998;2023-08-07T11:55:34;23.50;99.90
48946;DHT22;34999;50.940;3.998;2023-08-07T11:58:04;23.30;99.90
48946;DHT22;34999;50.940;3.998;2023-08-07T12:00:33;23.50;99.90
48946;DHT22;34999;50.940;3.998;2023-08-07T12:03:02;24.20;99.90
48946;DHT22;34999;50.940;3.998;2023-08-07T12:05:38;24.40;99.90
48946;DHT22;34999;50.940;3.998;2023-08-07T12:08:07;23.60;99.90
48946;DHT22;34999;50.940;3.998;2023-08-07T12:10:36;23.50;99.90
48946;DHT22;34999;50.940;3.998;2023-08-07T12:13:08;23.80;99.90
48946;DHT22;34999;50.940;3.998;2023-08-07T12:15:37;23.70;99.90
48946;DHT22;34999;50.940;3.998;2023-08-07T12:18:07;23.90;99.90
48946;DHT22;34999;50.940;3.998;2023-08-07T12:20:36;23.90;99.90
48946;DHT22;34999;50.940;3.998;2023-08-07T12:23:04;24.00;99.90
48946;DHT22;34999;50.940;3.998;2023-08-07T12:25:32;24.20;99.90
48946;DHT22;34999;50.940;3.998;2023-08-07T12:28:01;23.70;99.90
48946;DHT22;34999;50.940;3.998;2023-08-07T12:30:34;23.20;99.90
48946;DHT22;34999;50.940;3.998;2023-08-07T12:33:02;22.70;99.90
48946;DHT22;34999;50.940;3.998;2023-08-07T12:35:31;22.40;99.90
48946;DHT22;34999;50.940;3.998;2023-08-07T12:38:00;22.00;99.90
48946;DHT22;34999;50.940;3.998;2023-08-07T12:40:30;21.80;99.90
48946;DHT22;34999;50.940;3.998;2023-08-07T12:43:01;21.90;99.90
48946;DHT22;34999;50.940;3.998;2023-08-07T12:45:31;22.10;99.90
48946;DHT22;34999;50.940;3.998;2023-08-07T12:48:03;22.10;99.90
48946;DHT22;34999;50.940;3.998;2023-08-07T12:50:31;22.00;99.90
48946;DHT22;34999;50.940;3.998;2023-08-07T12:52:59;22.00;99.90
48946;DHT22;34999;50.940;3.998;2023-08-07T12:55:28;22.10;99.90
48946;DHT22;34999;50.940;3.998;2023-08-07T12:57:57;22.20;99.90
48946;DHT22;34999;50.940;3.998;2023-08-07T13:00:26;22.60;99.90
48946;DHT22;34999;50.940;3.998;2023-08-07T13:02:56;22.90;99.90
48946;DHT22;34999;50.940;3.998;2023-08-07T13:05:25;22.90;99.90
48946;DHT22;34999;50.940;3.998;2023-08-07T13:07:53;23.10;99.90
48946;DHT22;34999;50.940;3.998;2023-08-07T13:10:25;23.00;99.90
48946;DHT22;34999;50.940;3.998;2023-08-07T13:12:58;22.90;99.90
48946;DHT22;34999;50.940;3.998;2023-08-07T13:15:28;23.10;99.90
48946;DHT22;34999;50.940;3.998;2023-08-07T13:17:58;23.40;99.90
48946;DHT22;34999;50.940;3.998;2023-08-07T13:20:27;23.50;99.90
48946;DHT22;34999;50.940;3.998;2023-08-07T13:23:00;23.60;99.90
48946;DHT22;34999;50.940;3.998;2023-08-07T13:25:31;23.70;99.90
48946;DHT22;34999;50.940;3.998;2023-08-07T13:28:00;23.80;99.90
48946;DHT22;34999;50.940;3.998;2023-08-07T13:30:31;23.80;99.90
48946;DHT22;34999;50.940;3.998;2023-08-07T13:33:05;23.50;99.90
48946;DHT22;34999;50.940;3.998;2023-08-07T13:35:33;23.20;99.90
48946;DHT22;34999;50.940;3.998;2023-08-07T13:38:01;22.90;99.90
48946;DHT22;34999;50.940;3.998;2023-08-07T13:40:32;22.60;99.90
48946;DHT22;34999;50.940;3.998;2023-08-07T13:43:00;22.50;99.90
48946;DHT22;34999;50.940;3.998;2023-08-07T13:45:35;22.40;99.90
48946;DHT22;34999;50.940;3.998;2023-08-07T13:48:04;22.50;99.90
48946;DHT22;34999;50.940;3.998;2023-08-07T13:50:36;22.70;99.90
48946;DHT22;34999;50.940;3.998;2023-08-07T13:53:06;23.00;99.90
48946;DHT22;34999;50.940;3.998;2023-08-07T13:55:42;23.20;99.90
48946;DHT22;34999;50.940;3.998;2023-08-07T13:58:10;23.40;99.90
48946;DHT22;34999;50.940;3.998;2023-08-07T14:00:39;23.20;99.90
48946;DHT22;34999;50.940;3.998;2023-08-07T14:03:10;23.30;99.90
48946;DHT22;34999;50.940;3.998;2023-08-07T14:05:41;23.40;99.90
48946;DHT22;34999;50.940;3.998;2023-08-07T14:08:10;23.40;99.90
48946;DHT22;34999;50.940;3.998;2023-08-07T14:10:39;23.40;99.90
48946;DHT22;34999;50.940;3.998;2023-08-07T14:13:09;23.60;99.90
48946;DHT22;34999;50.940;3.998;2023-08-07T14:15:38;23.50;99.90
48946;DHT22;34999;50.940;3.998;2023-08-07T14:18:07;23.70;99.90
48946;DHT22;34999;50.940;3.998;2023-08-07T14:20:37;23.90;99.90
48946;DHT22;34999;50.940;3.998;2023-08-07T14:23:26;24.00;99.90
48946;DHT22;34999;50.940;3.998;2023-08-07T14:25:58;23.70;99.90
48946;DHT22;34999;50.940;3.998;2023-08-07T14:28:26;23.60;99.90
48946;DHT22;34999;50.940;3.998;2023-08-07T14:30:57;23.70;99.90
48946;DHT22;34999;50.940;3.998;2023-08-07T14:33:28;23.50;99.90
48946;DHT22;34999;50.940;3.998;2023-08-07T14:35:58;22.80;99.90
48946;DHT22;34999;50.940;3.998;2023-08-07T14:38:27;22.50;99.90
48946;DHT22;34999;50.940;3.998;2023-08-07T14:40:56;22.50;99.90
48946;DHT22;34999;50.940;3.998;2023-08-07T14:43:29;22.60;99.90
48946;DHT22;34999;50.940;3.998;2023-08-07T14:45:58;22.90;99.90
48946;DHT22;34999;50.940;3.998;2023-08-07T14:48:26;23.10;99.90
48946;DHT22;34999;50.940;3.998;2023-08-07T14:50:55;23.40;99.90
48946;DHT22;34999;50.940;3.998;2023-08-07T14:53:26;23.20;99.90
48946;DHT22;34999;50.940;3.998;2023-08-07T14:55:54;22.90;99.90
48946;DHT22;34999;50.940;3.998;2023-08-07T14:58:23;22.90;99.90
48946;DHT22;34999;50.940;3.998;2023-08-07T15:00:54;23.00;99.90
48946;DHT22;34999;50.940;3.998;2023-08-07T15:03:22;23.40;99.90
48946;DHT22;34999;50.940;3.998;2023-08-07T15:05:51;23.60;99.90
48946;DHT22;34999;50.940;3.998;2023-08-07T15:08:20;23.50;99.90
48946;DHT22;34999;50.940;3.998;2023-08-07T15:10:51;23.50;99.90
48946;DHT22;34999;50.940;3.998;2023-08-07T15:13:20;23.20;99.90
48946;DHT22;34999;50.940;3.998;2023-08-07T15:15:48;23.30;99.90
48946;DHT22;34999;50.940;3.998;2023-08-07T15:18:17;23.20;99.90
48946;DHT22;34999;50.940;3.998;2023-08-07T15:20:47;23.20;99.90
48946;DHT22;34999;50.940;3.998;2023-08-07T15:23:15;23.10;99.90
48946;DHT22;34999;50.940;3.998;2023-08-07T15:25:44;23.10;99.90
48946;DHT22;34999;50.940;3.998;2023-08-07T15:28:14;23.40;99.90
48946;DHT22;34999;50.940;3.998;2023-08-07T15:30:47;23.60;99.90
48946;DHT22;34999;50.940;3.998;2023-08-07T15:33:16;23.40;99.90
48946;DHT22;34999;50.940;3.998;2023-08-07T15:35:49;23.20;99.90
48946;DHT22;34999;50.940;3.998;2023-08-07T15:38:18;22.80;99.90
48946;DHT22;34999;50.940;3.998;2023-08-07T15:40:47;22.60;99.90
48946;DHT22;34999;50.940;3.998;2023-08-07T15:43:17;22.90;99.90
48946;DHT22;34999;50.940;3.998;2023-08-07T15:45:45;23.20;99.90
48946;DHT22;34999;50.940;3.998;2023-08-07T15:48:16;23.40;99.90